Terminal Aerodrome Forecast
Issued by NWS

Home | Current Version | Previous Version | Text Only | Print | Product List | Glossary On
Versions: 1 2 3 4 5 6 7 8 9 10 11 12 13 14 15 16
000
FTUS42 KILM 240006 CCB
TAFCRE
TAF COR
KCRE 240006Z 2400/2424 11018G29KT P6SM -RA BKN025 BKN040
     FM240300 11022G32KT 4SM -RA BR BKN015 OVC040
      TEMPO 2405/2408 12025G38KT 1SM +TSRA OVC006CB
     FM240800 12012G22KT P6SM -RA SCT006 OVC040
     FM241000 14010G16KT P6SM VCSH BKN006
     FM241400 19010KT P6SM SCT006 SCT050=

USA.gov is the U.S. government's official web portal to all federal, state and local government web resources and services.